Terminal Aerodrome Forecast
Issued by NWS

Home | Current Version | Previous Version | Text Only | Print | Product List | Glossary On
Versions: 1 2 3 4 5 6 7 8 9 10 11 12
000
FTUS45 KPIH 242300
TAFSUN
TAF
KSUN 242322Z 2500/2524 15006KT P6SM FEW100
     FM250300 31008KT P6SM SKC
     FM251200 33010G18KT P6SM FEW200
     FM251700 VRB06KT P6SM FEW100 SCT180
     FM251900 18010KT P6SM SCT100 BKN180
      AMD LTD TO CLD VIS AND WIND 2505/2513=

USA.gov is the U.S. government's official web portal to all federal, state and local government web resources and services.